Time;durP1;ratioP1;P1;durP2;ratioP2;P2;SDS_P1;SDS_P2;PMS_P1;PMS_P2;Temp;Humidity;BMP_temperature;BMP_pressure;BME280_temperature;BME280_humidity;BME280_pressure;Samples;Min_cycle;Max_cycle;Signal;HPM_P1;HPM_P2
2023/01/12 00:00:34;;;;;;;;;;;;;;;16.89;60.00;100633.88;2062209;28;19930;-81
2023/01/12 00:01:38;;;;;;;;;;;;;;;16.89;59.71;100631.16;2061992;28;20049;-81
2023/01/12 00:02:41;;;;;;;;;;;;;;;16.89;59.78;100629.22;2060161;28;19977;-81
2023/01/12 00:03:43;;;;;;;;;;;;;;;16.89;59.60;100642.06;2067979;28;20262;-81
2023/01/12 00:04:46;;;;;;;;;;;;;;;16.88;59.85;100638.56;2077687;28;19933;-81
2023/01/12 00:05:48;;;;;;;;;;;;;;;16.88;59.86;100621.41;2076922;28;19929;-82
2023/01/12 00:06:50;;;;;;;;;;;;;;;16.87;59.57;100620.63;2077849;28;19929;-81
2023/01/12 00:07:52;;;;;;;;;;;;;;;16.88;59.72;100624.16;2066745;28;20393;-81
2023/01/12 00:08:54;;;;;;;;;;;;;;;16.88;59.58;100629.59;2069451;28;20345;-81
2023/01/12 00:09:57;;;;;;;;;;;;;;;16.87;59.69;100615.19;2086850;28;19936;-81
2023/01/12 00:10:59;;;;;;;;;;;;;;;16.87;59.92;100620.63;2067431;28;19929;-81
2023/01/12 00:12:03;;;;;;;;;;;;;;;16.87;59.70;100614.41;2060071;28;19989;-81
2023/01/12 00:13:04;;;;;;;;;;;;;;;16.87;59.55;100628.81;2076090;28;19937;-81
2023/01/12 00:14:08;;;;;;;;;;;;;;;16.87;59.87;100617.91;2074865;28;19933;-81
2023/01/12 00:15:10;;;;;;;;;;;;;;;16.87;59.73;100628.06;2070380;28;20041;-81
2023/01/12 00:17:36;;;;;;;;;;;;;;;16.86;59.81;100634.66;2078967;28;19960;-81
2023/01/12 00:18:38;;;;;;;;;;;;;;;16.87;59.67;100623.34;2076642;28;19979;-81
2023/01/12 00:19:41;;;;;;;;;;;;;;;16.87;59.96;100617.16;2069736;28;20396;-81
2023/01/12 00:20:46;;;;;;;;;;;;;;;16.87;59.94;100615.19;2070657;28;19975;-81
2023/01/12 00:21:49;;;;;;;;;;;;;;;16.87;59.74;100614.41;2070582;28;19929;-81
2023/01/12 00:22:52;;;;;;;;;;;;;;;16.86;59.76;100612.84;2068869;28;20072;-81
2023/01/12 00:23:53;;;;;;;;;;;;;;;16.86;59.67;100610.91;2067637;28;19925;-81
2023/01/12 00:24:56;;;;;;;;;;;;;;;16.86;59.93;100615.56;2068743;28;19937;-80
2023/01/12 00:25:58;;;;;;;;;;;;;;;16.86;59.50;100619.06;2068498;28;19964;-80
2023/01/12 00:27:02;;;;;;;;;;;;;;;16.86;59.75;100612.84;2059883;28;19987;-80
2023/01/12 00:28:04;;;;;;;;;;;;;;;16.86;59.69;100619.06;2069317;28;19937;-81
2023/01/12 00:29:07;;;;;;;;;;;;;;;16.85;59.63;100624.94;2076679;28;20438;-81
2023/01/12 00:30:10;;;;;;;;;;;;;;;16.86;59.85;100618.28;2077070;28;19929;-80
2023/01/12 00:31:12;;;;;;;;;;;;;;;16.86;59.67;100621.03;2076169;28;19933;-80
2023/01/12 00:32:15;;;;;;;;;;;;;;;16.85;59.89;100617.53;2076106;28;20244;-80
2023/01/12 00:33:19;;;;;;;;;;;;;;;16.86;59.93;100626.47;2068922;28;20384;-81
2023/01/12 00:34:22;;;;;;;;;;;;;;;16.86;59.77;100607.38;2067688;28;19984;-80
2023/01/12 00:35:23;;;;;;;;;;;;;;;16.84;59.76;100609.75;2068844;28;19929;-80
2023/01/12 00:36:26;;;;;;;;;;;;;;;16.85;59.85;100611.28;2067930;28;20409;-80
2023/01/12 00:37:28;;;;;;;;;;;;;;;16.85;60.01;100608.56;2077261;28;19929;-80
2023/01/12 00:38:30;;;;;;;;;;;;;;;16.85;59.92;100605.84;2078391;28;19925;-80
2023/01/12 00:39:33;;;;;;;;;;;;;;;16.85;59.90;100605.84;2077869;28;19929;-80
2023/01/12 00:40:36;;;;;;;;;;;;;;;16.85;59.76;100605.84;2076226;28;19975;-80
2023/01/12 00:45:40;;;;;;;;;;;;;;;16.83;60.01;100598.03;2080846;28;20139;-80
2023/01/12 00:46:41;;;;;;;;;;;;;;;16.83;59.89;100603.50;2077418;28;19967;-81
2023/01/12 00:47:44;;;;;;;;;;;;;;;16.83;59.84;100602.72;2077927;28;20028;-80
2023/01/12 00:48:47;;;;;;;;;;;;;;;16.84;60.04;100604.28;2077397;28;20417;-80
2023/01/12 00:49:50;;;;;;;;;;;;;;;16.84;59.57;100612.47;2077728;28;19932;-80
2023/01/12 00:50:51;;;;;;;;;;;;;;;16.84;59.60;100604.28;2079005;28;19980;-80
2023/01/12 00:51:54;;;;;;;;;;;;;;;16.84;59.85;100609.75;2080904;28;20363;-80
2023/01/12 00:52:56;;;;;;;;;;;;;;;16.83;59.80;100608.94;2078230;28;19966;-81
2023/01/12 00:54:03;;;;;;;;;;;;;;;16.83;59.69;100608.16;2069270;28;20417;-81
2023/01/12 00:55:06;;;;;;;;;;;;;;;16.83;59.95;100616.34;2062122;28;20461;-80
2023/01/12 00:56:07;;;;;;;;;;;;;;;16.83;59.95;100611.69;2070276;28;20203;-79
2023/01/12 00:57:12;;;;;;;;;;;;;;;16.82;59.73;100601.94;2078796;28;19929;-81
2023/01/12 00:58:13;;;;;;;;;;;;;;;16.83;59.61;100592.59;2070384;28;19937;-80
2023/01/12 00:59:16;;;;;;;;;;;;;;;16.83;59.76;100608.94;2069901;28;19926;-80
2023/01/12 01:00:18;;;;;;;;;;;;;;;16.82;59.79;100598.44;2069688;28;20286;-81
2023/01/12 01:01:21;;;;;;;;;;;;;;;16.83;59.51;100603.50;2070737;28;19926;-80
2023/01/12 01:02:23;;;;;;;;;;;;;;;16.83;59.86;100608.16;2079588;28;19960;-79
2023/01/12 01:03:26;;;;;;;;;;;;;;;16.82;59.69;100604.69;2070100;28;19936;-81
2023/01/12 01:04:29;;;;;;;;;;;;;;;16.83;59.84;100597.25;2080136;28;20408;-80
2023/01/12 01:05:32;;;;;;;;;;;;;;;16.82;59.67;100595.72;2076543;28;19929;-80
2023/01/12 01:06:36;;;;;;;;;;;;;;;16.83;59.79;100597.25;2075165;28;19930;-80
2023/01/12 01:07:38;;;;;;;;;;;;;;;16.83;59.90;100591.81;2070349;28;19988;-81
2023/01/12 01:08:40;;;;;;;;;;;;;;;16.82;59.89;100585.59;2070769;28;19967;-80
2023/01/12 01:09:43;;;;;;;;;;;;;;;16.82;59.78;100590.25;2079845;28;20306;-80
2023/01/12 01:10:45;;;;;;;;;;;;;;;16.82;59.70;100584.81;2086035;28;19933;-80
2023/01/12 01:11:48;;;;;;;;;;;;;;;16.82;59.91;100584.81;2077143;28;19933;-81
2023/01/12 01:12:50;;;;;;;;;;;;;;;16.81;59.92;100584.00;2084441;28;19933;-80
2023/01/12 01:13:54;;;;;;;;;;;;;;;16.81;59.94;100584.00;2077674;28;20433;-80
2023/01/12 01:14:55;;;;;;;;;;;;;;;16.81;59.84;100583.25;2085588;28;19925;-80
2023/01/12 01:16:01;;;;;;;;;;;;;;;16.81;59.63;100586.75;2077185;28;19970;-80
2023/01/12 01:17:03;;;;;;;;;;;;;;;16.82;59.65;100590.25;2078911;28;19925;-81
2023/01/12 01:18:06;;;;;;;;;;;;;;;16.82;59.97;100590.25;2085513;28;19936;-81
2023/01/12 01:19:08;;;;;;;;;;;;;;;16.81;59.89;100589.47;2068803;28;19933;-80
2023/01/12 01:20:12;;;;;;;;;;;;;;;16.81;59.91;100584.00;2071308;28;19929;-80
2023/01/12 01:21:14;;;;;;;;;;;;;;;16.82;59.84;100579.34;2068831;28;19999;-81
2023/01/12 01:22:17;;;;;;;;;;;;;;;16.81;59.87;100573.09;2070988;28;19929;-81
2023/01/12 01:23:19;;;;;;;;;;;;;;;16.81;59.98;100569.63;2080173;28;19976;-81
2023/01/12 01:24:22;;;;;;;;;;;;;;;16.80;59.81;100571.56;2078984;28;19933;-80
2023/01/12 01:25:24;;;;;;;;;;;;;;;16.80;59.73;100576.22;2079998;28;20309;-80
2023/01/12 01:26:29;;;;;;;;;;;;;;;16.81;59.97;100578.56;2078465;28;19983;-81
2023/01/12 01:27:31;;;;;;;;;;;;;;;16.81;59.82;100577.81;2087416;28;20046;-81
2023/01/12 01:28:33;;;;;;;;;;;;;;;16.81;59.74;100577.81;2079915;28;19948;-80
2023/01/12 01:29:35;;;;;;;;;;;;;;;16.81;59.70;100566.88;2062562;28;19933;-80
2023/01/12 01:30:38;;;;;;;;;;;;;;;16.80;59.71;100565.31;2071949;28;20179;-80
2023/01/12 01:31:40;;;;;;;;;;;;;;;16.81;59.88;100564.91;2078439;28;19933;-81
2023/01/12 01:32:43;;;;;;;;;;;;;;;16.79;59.78;100556.34;2077810;28;19929;-81
2023/01/12 01:33:44;;;;;;;;;;;;;;;16.80;59.55;100554.41;2076856;28;19929;-80
2023/01/12 01:34:47;;;;;;;;;;;;;;;16.80;59.82;100557.94;2077305;28;19930;-81
2023/01/12 01:35:50;;;;;;;;;;;;;;;16.80;59.87;100566.09;2078646;28;20743;-81
2023/01/12 01:36:52;;;;;;;;;;;;;;;16.80;59.69;100557.13;2070612;28;19987;-80
2023/01/12 01:37:54;;;;;;;;;;;;;;;16.80;59.78;100555.19;2079614;28;19936;-81
2023/01/12 01:38:57;;;;;;;;;;;;;;;16.79;59.91;100553.63;2086133;28;19983;-81
2023/01/12 01:39:59;;;;;;;;;;;;;;;16.80;59.67;100554.41;2077357;28;19929;-81
2023/01/12 01:41:02;;;;;;;;;;;;;;;16.80;59.91;100549.75;2076178;28;19937;-80
2023/01/12 01:42:03;;;;;;;;;;;;;;;16.79;59.62;100542.72;2077788;28;19925;-80
2023/01/12 01:43:06;;;;;;;;;;;;;;;16.80;59.75;100548.94;2069789;28;19963;-81
2023/01/12 01:44:23;;;;;;;;;;;;;;;16.80;59.83;100543.50;2071091;28;19972;-80
2023/01/12 01:45:26;;;;;;;;;;;;;;;16.80;59.93;100551.69;2078539;28;19928;-80
2023/01/12 01:46:47;;;;;;;;;;;;;;;16.80;59.80;100548.94;2071670;28;19933;-80
2023/01/12 01:47:50;;;;;;;;;;;;;;;16.79;59.76;100541.97;2080871;28;20796;-81
2023/01/12 01:48:52;;;;;;;;;;;;;;;16.79;59.83;100536.50;2071064;28;19940;-81
2023/01/12 01:49:56;;;;;;;;;;;;;;;16.79;60.04;100536.50;2078266;28;19936;-81
2023/01/12 01:51:02;;;;;;;;;;;;;;;16.79;59.54;100533.78;2085463;28;20685;-81
2023/01/12 01:52:06;;;;;;;;;;;;;;;16.79;59.65;100536.50;2069903;28;19953;-82
2023/01/12 01:53:10;;;;;;;;;;;;;;;16.78;59.83;100538.44;2061554;28;19934;-80
2023/01/12 01:54:13;;;;;;;;;;;;;;;16.78;59.68;100543.88;2069524;28;19937;-80
2023/01/12 01:55:20;;;;;;;;;;;;;;;16.78;59.80;100535.72;2068173;28;19930;-81
2023/01/12 01:56:25;;;;;;;;;;;;;;;16.78;60.03;100532.19;2070687;28;20460;-81
2023/01/12 01:57:31;;;;;;;;;;;;;;;16.78;59.88;100524.81;2077506;28;19929;-80
2023/01/12 01:58:34;;;;;;;;;;;;;;;16.79;59.70;100528.31;2067499;28;19930;-81
2023/01/12 01:59:38;;;;;;;;;;;;;;;16.79;59.87;100514.69;2062324;28;19929;-81
2023/01/12 02:00:41;;;;;;;;;;;;;;;16.77;59.92;100515.09;2060956;28;19941;-80
2023/01/12 02:01:44;;;;;;;;;;;;;;;16.78;59.75;100515.84;2070447;28;19990;-81
2023/01/12 02:02:46;;;;;;;;;;;;;;;16.79;59.63;100522.88;2069176;28;19930;-81
2023/01/12 02:03:50;;;;;;;;;;;;;;;16.78;59.74;100513.13;2061416;28;20375;-81
2023/01/12 02:04:52;;;;;;;;;;;;;;;16.77;59.59;100522.47;2069002;28;19933;-81
2023/01/12 02:05:56;;;;;;;;;;;;;;;16.77;59.65;100512.34;2078233;28;19948;-81
2023/01/12 02:07:01;;;;;;;;;;;;;;;16.77;59.71;100503.38;2071120;28;19933;-82
2023/01/12 02:08:08;;;;;;;;;;;;;;;16.78;59.61;100504.94;2069627;28;19981;-81
2023/01/12 02:09:12;;;;;;;;;;;;;;;16.77;59.60;100504.19;2080375;28;20395;-81
2023/01/12 02:10:15;;;;;;;;;;;;;;;16.77;59.83;100495.22;2086124;28;19928;-82
2023/01/12 02:16:42;;;;;;;;;;;;;;;16.76;59.92;100490.94;2079214;28;19933;-82
2023/01/12 02:17:52;;;;;;;;;;;;;;;16.77;59.97;100484.31;2077864;28;20332;-81
2023/01/12 02:19:01;;;;;;;;;;;;;;;16.76;59.72;100483.50;2078211;28;19930;-81
2023/01/12 02:20:13;;;;;;;;;;;;;;;16.77;59.93;100478.84;2070374;28;19952;-81
2023/01/12 02:21:24;;;;;;;;;;;;;;;16.77;59.74;100484.31;2071454;28;19940;-81
2023/01/12 02:22:40;;;;;;;;;;;;;;;16.76;59.69;100469.88;2078419;28;19972;-81
2023/01/12 02:24:04;;;;;;;;;;;;;;;16.76;59.87;100466.41;2070844;28;19936;-81
2023/01/12 02:25:17;;;;;;;;;;;;;;;16.76;59.97;100466.41;2074927;28;19952;-80
2023/01/12 02:26:44;;;;;;;;;;;;;;;16.77;59.90;100473.41;2071123;28;19933;-81
2023/01/12 02:27:55;;;;;;;;;;;;;;;16.77;60.00;100459.75;2084703;28;19928;-80
2023/01/12 02:29:12;;;;;;;;;;;;;;;16.76;59.86;100466.41;2085181;28;19994;-81
2023/01/12 02:30:42;;;;;;;;;;;;;;;16.77;59.64;100454.31;2087251;28;19929;-81
2023/01/12 02:31:51;;;;;;;;;;;;;;;16.77;59.87;100451.59;2085305;28;19941;-80
2023/01/12 02:33:00;;;;;;;;;;;;;;;16.77;59.57;100443.41;2078893;28;19926;-79
2023/01/12 02:34:08;;;;;;;;;;;;;;;16.77;59.63;100454.31;2069373;28;19929;-80
2023/01/12 02:35:16;;;;;;;;;;;;;;;16.77;59.55;100446.13;2064578;28;19961;-80
2023/01/12 02:36:20;;;;;;;;;;;;;;;16.76;59.60;100447.31;2061111;28;19964;-80
2023/01/12 02:37:29;;;;;;;;;;;;;;;16.76;59.84;100439.91;2069599;28;20349;-80
2023/01/12 02:38:34;;;;;;;;;;;;;;;16.76;59.81;100439.13;2077860;28;19936;-80
2023/01/12 02:39:42;;;;;;;;;;;;;;;16.76;59.93;100437.16;2077554;28;19929;-79
2023/01/12 02:40:47;;;;;;;;;;;;;;;16.76;59.96;100439.13;2076874;28;19925;-79
2023/01/12 02:43:16;;;;;;;;;;;;;;;16.76;59.81;100430.97;2079471;28;20308;-79
2023/01/12 02:44:25;;;;;;;;;;;;;;;16.76;60.05;100437.16;2077922;28;19929;-81
2023/01/12 02:45:35;;;;;;;;;;;;;;;16.76;59.77;100436.41;2076577;28;19929;-79
2023/01/12 02:46:39;;;;;;;;;;;;;;;16.75;59.64;100419.25;2063526;28;19957;-80
2023/01/12 02:47:48;;;;;;;;;;;;;;;16.75;59.69;100422.00;2071800;28;20049;-80
2023/01/12 02:48:54;;;;;;;;;;;;;;;16.75;59.66;100418.47;2078148;28;19933;-80
2023/01/12 02:49:59;;;;;;;;;;;;;;;16.75;59.96;100415.75;2069350;28;19936;-79
2023/01/12 02:51:04;;;;;;;;;;;;;;;16.76;59.75;100420.06;2079062;28;20067;-80
2023/01/12 02:52:09;;;;;;;;;;;;;;;16.76;59.91;100417.31;2085550;28;19929;-81
2023/01/12 02:53:14;;;;;;;;;;;;;;;16.76;59.71;100411.88;2078963;28;20060;-80
2023/01/12 02:54:19;;;;;;;;;;;;;;;16.76;59.88;100420.06;2069614;28;20468;-80
2023/01/12 02:55:21;;;;;;;;;;;;;;;16.75;59.66;100410.28;2069251;28;19929;-80
2023/01/12 02:56:24;;;;;;;;;;;;;;;16.75;59.95;100404.84;2077797;28;20001;-81
2023/01/12 02:57:28;;;;;;;;;;;;;;;16.75;59.88;100405.63;2076475;28;20646;-80
2023/01/12 02:58:32;;;;;;;;;;;;;;;16.75;59.80;100404.84;2068901;28;19980;-80
2023/01/12 02:59:51;;;;;;;;;;;;;;;16.75;59.66;100404.84;2071548;28;19925;-80
2023/01/12 03:00:57;;;;;;;;;;;;;;;16.75;59.92;100399.38;2073246;28;20411;-80
2023/01/12 03:02:03;;;;;;;;;;;;;;;16.75;59.74;100393.94;2070790;28;19937;-81
2023/01/12 03:03:07;;;;;;;;;;;;;;;16.75;59.77;100393.94;2077750;28;19925;-81
2023/01/12 03:04:10;;;;;;;;;;;;;;;16.75;59.86;100396.66;2076998;28;20447;-80
2023/01/12 03:05:12;;;;;;;;;;;;;;;16.75;59.96;100388.50;2069592;28;19956;-80
2023/01/12 03:06:14;;;;;;;;;;;;;;;16.74;59.82;100395.13;2067014;28;19932;-79
2023/01/12 03:07:37;;;;;;;;;;;;;;;16.74;59.91;100386.94;2068352;28;19949;-80
2023/01/12 03:08:40;;;;;;;;;;;;;;;16.75;59.86;100388.50;2059965;28;19937;-81
2023/01/12 03:09:43;;;;;;;;;;;;;;;16.74;59.87;100381.50;2061788;28;19929;-80
2023/01/12 03:10:53;;;;;;;;;;;;;;;16.75;59.79;100383.03;2069707;28;19925;-80
2023/01/12 03:11:59;;;;;;;;;;;;;;;16.74;59.86;100370.59;2069779;28;20063;-80
2023/01/12 03:13:06;;;;;;;;;;;;;;;16.74;60.02;100362.41;2069310;28;20750;-80
2023/01/12 03:14:09;;;;;;;;;;;;;;;16.73;59.81;100366.31;2071695;28;19933;-85
2023/01/12 03:15:13;;;;;;;;;;;;;;;16.75;59.88;100363.94;2071097;28;19929;-86
2023/01/12 03:16:17;;;;;;;;;;;;;;;16.73;59.88;100363.59;2069919;28;19929;-85
2023/01/12 03:17:24;;;;;;;;;;;;;;;16.73;59.90;100358.13;2071258;28;19933;-86
2023/01/12 03:18:33;;;;;;;;;;;;;;;16.74;59.71;100360.47;2073380;28;19925;-87
2023/01/12 03:19:35;;;;;;;;;;;;;;;16.73;59.74;100356.16;2086118;28;20335;-87
2023/01/12 03:20:39;;;;;;;;;;;;;;;16.73;59.85;100348.00;2078279;28;20557;-87
2023/01/12 03:21:44;;;;;;;;;;;;;;;16.73;59.81;100353.44;2079371;28;19929;-83
2023/01/12 03:22:49;;;;;;;;;;;;;;;16.73;59.87;100345.25;2082970;28;19932;-84
2023/01/12 03:23:55;;;;;;;;;;;;;;;16.73;59.96;100349.97;2070264;28;19929;-82
2023/01/12 03:25:01;;;;;;;;;;;;;;;16.72;60.04;100341.00;2063356;28;19980;-83
2023/01/12 03:26:05;;;;;;;;;;;;;;;16.73;59.82;100342.53;2060094;28;20000;-83
2023/01/12 03:27:09;;;;;;;;;;;;;;;16.74;59.88;100343.31;2077089;28;19991;-82
2023/01/12 03:28:14;;;;;;;;;;;;;;;16.72;59.88;100338.25;2068969;28;19936;-82
2023/01/12 03:29:19;;;;;;;;;;;;;;;16.72;59.96;100341.00;2068942;28;19937;-83
2023/01/12 03:30:24;;;;;;;;;;;;;;;16.72;59.96;100335.53;2078275;28;19984;-83
2023/01/12 03:31:27;;;;;;;;;;;;;;;16.73;59.96;100333.59;2076554;28;20388;-83
2023/01/12 03:32:29;;;;;;;;;;;;;;;16.73;59.70;100333.59;2069934;28;20369;-82
2023/01/12 03:33:33;;;;;;;;;;;;;;;16.72;60.09;100334.75;2069191;28;19929;-82
2023/01/12 03:34:35;;;;;;;;;;;;;;;16.72;59.62;100334.75;2068861;28;20321;-82
2023/01/12 03:35:40;;;;;;;;;;;;;;;16.73;59.98;100330.88;2077361;28;19967;-82
2023/01/12 03:36:45;;;;;;;;;;;;;;;16.72;59.85;100323.84;2068313;28;20396;-82
2023/01/12 03:37:51;;;;;;;;;;;;;;;16.72;60.16;100323.84;2068817;28;19937;-84
2023/01/12 03:39:01;;;;;;;;;;;;;;;16.72;59.99;100324.63;2071407;28;19930;-83
2023/01/12 03:40:08;;;;;;;;;;;;;;;16.71;59.61;100325.81;2077123;28;19972;-83
2023/01/12 03:41:15;;;;;;;;;;;;;;;16.73;59.85;100317.25;2077574;28;19933;-83
2023/01/12 03:42:23;;;;;;;;;;;;;;;16.72;59.69;100318.41;2068838;28;19929;-83
2023/01/12 03:43:29;;;;;;;;;;;;;;;16.73;60.00;100322.69;2068927;28;19934;-83
2023/01/12 03:44:38;;;;;;;;;;;;;;;16.73;59.78;100315.28;2074014;28;20479;-83
2023/01/12 03:45:44;;;;;;;;;;;;;;;16.72;59.72;100310.22;2070406;28;19933;-83
2023/01/12 03:46:52;;;;;;;;;;;;;;;16.74;59.96;100310.59;2070293;28;20428;-83
2023/01/12 03:47:57;;;;;;;;;;;;;;;16.73;59.99;100303.63;2062816;28;20358;-84
2023/01/12 03:49:06;;;;;;;;;;;;;;;16.73;59.89;100306.34;2068309;28;19930;-83
2023/01/12 03:50:10;;;;;;;;;;;;;;;16.72;60.01;100308.28;2077334;28;19981;-83
2023/01/12 03:51:15;;;;;;;;;;;;;;;16.72;59.91;100304.75;2077995;28;19937;-83
2023/01/12 03:52:18;;;;;;;;;;;;;;;16.73;60.03;100292.72;2085904;28;19928;-83
2023/01/12 03:53:22;;;;;;;;;;;;;;;16.72;59.83;100302.81;2076385;28;19933;-82
2023/01/12 03:54:26;;;;;;;;;;;;;;;16.72;59.93;100296.59;2060454;28;20391;-83
2023/01/12 03:55:29;;;;;;;;;;;;;;;16.71;60.02;100295.84;2076580;28;19955;-83
2023/01/12 03:56:35;;;;;;;;;;;;;;;16.72;59.95;100286.47;2085001;28;19933;-83
2023/01/12 03:57:37;;;;;;;;;;;;;;;16.72;59.88;100291.13;2078237;28;20001;-88
2023/01/12 03:58:40;;;;;;;;;;;;;;;16.71;59.73;100284.94;2072950;28;19964;-87
2023/01/12 03:59:43;;;;;;;;;;;;;;;16.72;59.95;100277.50;2078440;28;19965;-90
2023/01/12 04:00:45;;;;;;;;;;;;;;;16.72;59.79;100275.56;2085303;28;19925;-88
2023/01/12 04:01:48;;;;;;;;;;;;;;;16.71;59.83;100279.47;2070757;28;20488;-87
2023/01/12 04:03:00;;;;;;;;;;;;;;;16.71;60.06;100265.84;2078504;28;19925;-86
2023/01/12 04:04:04;;;;;;;;;;;;;;;16.72;59.76;100263.88;2081047;28;19925;-87
2023/01/12 04:05:07;;;;;;;;;;;;;;;16.71;60.06;100262.34;2077628;28;19983;-85
2023/01/12 04:06:10;;;;;;;;;;;;;;;16.71;59.90;100257.66;2084605;28;19983;-85
2023/01/12 04:07:12;;;;;;;;;;;;;;;16.72;59.74;100261.16;2079344;28;20580;-85
2023/01/12 04:08:15;;;;;;;;;;;;;;;16.70;59.58;100256.09;2077153;28;19999;-86
2023/01/12 04:09:18;;;;;;;;;;;;;;;16.72;59.89;100247.53;2078073;28;19933;-85
2023/01/12 04:10:20;;;;;;;;;;;;;;;16.71;59.81;100246.75;2067900;28;19941;-86
2023/01/12 04:12:43;;;;;;;;;;;;;;;16.70;59.96;100241.72;2080250;28;20440;-84
2023/01/12 04:13:45;;;;;;;;;;;;;;;16.71;60.02;100235.06;2069107;28;20294;-85
2023/01/12 04:14:48;;;;;;;;;;;;;;;16.71;59.88;100237.78;2069109;28;20449;-84
2023/01/12 04:15:50;;;;;;;;;;;;;;;16.70;59.85;100233.53;2069278;28;19953;-85
2023/01/12 04:16:53;;;;;;;;;;;;;;;16.69;59.86;100227.28;2077560;28;20625;-85
2023/01/12 04:17:54;;;;;;;;;;;;;;;16.70;59.84;100214.44;2077720;28;19936;-84
2023/01/12 04:18:57;;;;;;;;;;;;;;;16.70;59.92;100209.00;2078233;28;19936;-84
2023/01/12 04:20:01;;;;;;;;;;;;;;;16.71;59.87;100216.00;2068718;28;20490;-84
2023/01/12 04:21:04;;;;;;;;;;;;;;;16.70;59.68;100217.94;2069533;28;19961;-86
2023/01/12 04:23:26;;;;;;;;;;;;;;;16.70;59.72;100198.09;2067131;28;19969;-87
2023/01/12 04:24:28;;;;;;;;;;;;;;;16.70;59.93;100203.53;2069095;28;19926;-87
2023/01/12 04:25:30;;;;;;;;;;;;;;;16.70;59.87;100198.09;2087127;28;19959;-84
2023/01/12 04:26:32;;;;;;;;;;;;;;;16.70;59.71;100192.66;2080315;28;19972;-85
2023/01/12 04:27:35;;;;;;;;;;;;;;;16.70;59.88;100195.38;2071829;28;20424;-86
2023/01/12 04:28:37;;;;;;;;;;;;;;;16.70;59.63;100200.81;2078521;28;19929;-87
2023/01/12 04:29:39;;;;;;;;;;;;;;;16.70;59.81;100189.91;2076380;28;19936;-86
2023/01/12 04:30:41;;;;;;;;;;;;;;;16.70;59.84;100189.91;2086429;28;19940;-88
2023/01/12 04:31:44;;;;;;;;;;;;;;;16.69;59.73;100185.63;2086738;28;20027;-86
2023/01/12 04:32:46;;;;;;;;;;;;;;;16.69;59.71;100178.22;2080271;28;19932;-87
2023/01/12 04:33:49;;;;;;;;;;;;;;;16.70;59.93;100163.41;2072204;28;19991;-85
2023/01/12 04:34:50;;;;;;;;;;;;;;;16.69;59.78;100163.81;2086244;28;19929;-86
2023/01/12 04:35:54;;;;;;;;;;;;;;;16.69;59.87;100148.25;2078285;28;19929;-86
2023/01/12 04:36:57;;;;;;;;;;;;;;;16.69;59.79;100139.28;2071150;28;20471;-85
2023/01/12 04:38:04;;;;;;;;;;;;;;;16.69;59.83;100128.38;2077978;28;19936;-85
2023/01/12 04:39:07;;;;;;;;;;;;;;;16.69;59.98;100128.38;2078613;28;19937;-87
2023/01/12 04:40:09;;;;;;;;;;;;;;;16.68;59.68;100116.69;2077654;28;19937;-85
2023/01/12 04:41:12;;;;;;;;;;;;;;;16.69;59.75;100112.03;2069648;28;19934;-87
2023/01/12 04:43:35;;;;;;;;;;;;;;;16.68;59.54;100088.66;2071268;28;19929;-87
2023/01/12 04:44:37;;;;;;;;;;;;;;;16.69;59.92;100090.22;2072062;28;20351;-87
2023/01/12 04:45:42;;;;;;;;;;;;;;;16.68;59.79;100066.88;2069591;28;19929;-85
2023/01/12 04:46:45;;;;;;;;;;;;;;;16.68;59.80;100073.06;2077093;28;20024;-86
2023/01/12 04:47:47;;;;;;;;;;;;;;;16.69;59.74;100073.88;2078657;28;19929;-86
2023/01/12 04:48:49;;;;;;;;;;;;;;;16.69;59.94;100062.97;2077866;28;19929;-84
2023/01/12 04:49:52;;;;;;;;;;;;;;;16.68;59.83;100066.88;2077939;28;20357;-85
2023/01/12 04:50:57;;;;;;;;;;;;;;;16.67;59.67;100066.09;2078535;28;20413;-85
2023/01/12 04:52:00;;;;;;;;;;;;;;;16.68;59.95;100053.25;2067811;28;20008;-85
2023/01/12 04:53:02;;;;;;;;;;;;;;;16.68;59.89;100047.78;2063435;28;19957;-84
2023/01/12 04:54:05;;;;;;;;;;;;;;;16.67;59.71;100044.28;2069231;28;19999;-84
2023/01/12 04:55:08;;;;;;;;;;;;;;;16.68;59.70;100039.63;2075435;28;19929;-84
2023/01/12 04:56:11;;;;;;;;;;;;;;;16.67;59.93;100027.13;2078583;28;19936;-86
2023/01/12 04:57:13;;;;;;;;;;;;;;;16.67;59.88;100014.28;2070479;28;19929;-85
2023/01/12 04:58:15;;;;;;;;;;;;;;;16.68;59.84;100017.81;2078789;28;20526;-85
2023/01/12 04:59:17;;;;;;;;;;;;;;;16.67;59.64;100002.59;2078162;28;20316;-84
2023/01/12 05:00:20;;;;;;;;;;;;;;;16.68;59.53;99996.00;2076404;28;19963;-84
2023/01/12 05:01:22;;;;;;;;;;;;;;;16.68;59.59;99990.56;2078110;28;20083;-88
2023/01/12 05:02:25;;;;;;;;;;;;;;;16.67;59.80;99989.75;2077101;28;19969;-87
2023/01/12 05:03:26;;;;;;;;;;;;;;;16.68;59.90;99979.66;2068191;28;19929;-88
2023/01/12 05:04:29;;;;;;;;;;;;;;;16.67;59.75;99978.06;2071875;28;19983;-88
2023/01/12 05:05:32;;;;;;;;;;;;;;;16.67;59.81;99967.19;2072353;28;19926;-86
2023/01/12 05:06:36;;;;;;;;;;;;;;;16.67;59.50;99976.13;2079593;28;19929;-88
2023/01/12 05:10:21;;;;;;;;;;;;;;;16.66;59.65;99971.88;2084600;28;19991;-88
2023/01/12 05:10:24;;;;;;;;;;;;;;;16.67;59.74;99967.19;2079998;28;19997;-85
2023/01/12 05:11:27;;;;;;;;;;;;;;;16.66;59.77;99950.06;2085735;28;20024;-83
2023/01/12 05:12:29;;;;;;;;;;;;;;;16.67;59.71;99945.38;2077542;28;20031;-86
2023/01/12 05:13:31;;;;;;;;;;;;;;;16.67;59.83;99939.91;2076995;28;19933;-88
2023/01/12 05:14:34;;;;;;;;;;;;;;;16.67;59.79;99945.38;2080101;28;20388;-87
2023/01/12 05:15:36;;;;;;;;;;;;;;;16.66;59.85;99950.06;2069491;28;19929;-90
2023/01/12 05:16:38;;;;;;;;;;;;;;;16.67;59.85;99945.38;2063549;28;19934;-90
2023/01/12 05:17:40;;;;;;;;;;;;;;;16.67;59.96;99945.38;2069790;28;20680;-85
2023/01/12 05:18:43;;;;;;;;;;;;;;;16.66;59.83;99933.72;2078032;28;20434;-87
2023/01/12 05:19:47;;;;;;;;;;;;;;;16.66;59.80;99938.38;2078333;28;19975;-83
2023/01/12 05:20:49;;;;;;;;;;;;;;;16.66;59.85;99944.63;2077333;28;20455;-86
2023/01/12 05:21:52;;;;;;;;;;;;;;;16.66;59.72;99947.34;2076291;28;19929;-87
2023/01/12 05:22:56;;;;;;;;;;;;;;;16.66;59.81;99936.44;2077944;28;19932;-88
2023/01/12 05:23:58;;;;;;;;;;;;;;;16.66;59.56;99938.38;2077624;28;20313;-87
2023/01/12 05:25:00;;;;;;;;;;;;;;;16.66;59.89;99932.94;2070863;28;19930;-83
2023/01/12 05:26:04;;;;;;;;;;;;;;;16.65;59.79;99931.41;2061777;28;19978;-85
2023/01/12 05:27:07;;;;;;;;;;;;;;;16.66;59.83;99927.47;2072536;28;19929;-86
2023/01/12 05:28:08;;;;;;;;;;;;;;;16.66;59.78;99938.38;2077935;28;19936;-87
2023/01/12 05:29:11;;;;;;;;;;;;;;;16.66;59.80;99922.03;2079848;28;19929;-86
2023/01/12 05:30:13;;;;;;;;;;;;;;;16.66;59.61;99931.00;2081553;28;19936;-85
2023/01/12 05:31:15;;;;;;;;;;;;;;;16.66;59.88;99919.31;2078370;28;19934;-85
2023/01/12 05:32:17;;;;;;;;;;;;;;;16.65;59.74;99915.03;2069820;28;19926;-83
2023/01/12 05:33:20;;;;;;;;;;;;;;;16.65;59.87;99909.59;2078427;28;19959;-85
2023/01/12 05:34:22;;;;;;;;;;;;;;;16.65;59.89;99887.78;2079880;28;19925;-85
2023/01/12 05:35:25;;;;;;;;;;;;;;;16.65;59.89;99902.16;2080765;28;19937;-84
2023/01/12 05:36:26;;;;;;;;;;;;;;;16.66;59.86;99897.50;2070257;28;20301;-85
2023/01/12 05:37:30;;;;;;;;;;;;;;;16.65;59.52;99906.88;2080300;28;20355;-86
2023/01/12 05:38:32;;;;;;;;;;;;;;;16.65;59.58;99895.97;2078204;28;20297;-85
2023/01/12 05:39:35;;;;;;;;;;;;;;;16.65;59.60;99898.69;2079593;28;19932;-85
2023/01/12 05:40:36;;;;;;;;;;;;;;;16.65;59.81;99910.34;2070123;28;20333;-85
2023/01/12 05:43:48;;;;;;;;;;;;;;;16.65;59.83;99915.03;2078350;28;19929;-85
2023/01/12 05:44:21;;;;;;;;;;;;;;;16.65;59.73;99917.78;2075603;28;19930;-85
2023/01/12 05:45:23;;;;;;;;;;;;;;;16.65;59.63;99904.91;2073098;28;19930;-84
2023/01/12 05:46:26;;;;;;;;;;;;;;;16.65;59.78;99909.59;2079957;28;20345;-85
2023/01/12 05:47:28;;;;;;;;;;;;;;;16.64;59.82;99897.91;2087098;28;19933;-86
2023/01/12 05:48:32;;;;;;;;;;;;;;;16.64;59.82;99897.91;2078193;28;19929;-85
2023/01/12 05:49:33;;;;;;;;;;;;;;;16.64;59.72;99892.44;2070051;28;19930;-85